sensor_id;sensor_type;location;lat;lon;timestamp;P1;durP1;ratioP1;P2;durP2;ratioP2
27163;SDS011;14685;50.618;7.024;2022-08-19T00:01:22;9.75;;;8.88;;
27163;SDS011;14685;50.618;7.024;2022-08-19T00:03:58;10.18;;;9.18;;
27163;SDS011;14685;50.618;7.024;2022-08-19T00:06:27;9.20;;;8.30;;
27163;SDS011;14685;50.618;7.024;2022-08-19T00:08:55;10.30;;;9.30;;
27163;SDS011;14685;50.618;7.024;2022-08-19T00:11:24;10.43;;;9.32;;
27163;SDS011;14685;50.618;7.024;2022-08-19T00:13:53;10.43;;;8.80;;
27163;SDS011;14685;50.618;7.024;2022-08-19T00:16:22;9.65;;;8.65;;
27163;SDS011;14685;50.618;7.024;2022-08-19T00:18:52;10.48;;;9.48;;
27163;SDS011;14685;50.618;7.024;2022-08-19T00:21:19;10.07;;;9.07;;
27163;SDS011;14685;50.618;7.024;2022-08-19T00:23:47;10.23;;;9.13;;
27163;SDS011;14685;50.618;7.024;2022-08-19T00:26:14;10.30;;;9.30;;
27163;SDS011;14685;50.618;7.024;2022-08-19T00:28:41;9.68;;;8.70;;
27163;SDS011;14685;50.618;7.024;2022-08-19T00:31:07;8.80;;;7.85;;
27163;SDS011;14685;50.618;7.024;2022-08-19T00:33:35;9.80;;;8.80;;
27163;SDS011;14685;50.618;7.024;2022-08-19T00:36:04;10.32;;;7.53;;
27163;SDS011;14685;50.618;7.024;2022-08-19T00:38:33;8.88;;;8.05;;
27163;SDS011;14685;50.618;7.024;2022-08-19T00:41:04;8.95;;;8.05;;
27163;SDS011;14685;50.618;7.024;2022-08-19T00:43:32;8.88;;;7.97;;
27163;SDS011;14685;50.618;7.024;2022-08-19T00:45:59;8.95;;;8.00;;
27163;SDS011;14685;50.618;7.024;2022-08-19T00:48:27;9.70;;;8.05;;
27163;SDS011;14685;50.618;7.024;2022-08-19T00:50:54;8.45;;;7.65;;
27163;SDS011;14685;50.618;7.024;2022-08-19T00:53:23;9.27;;;7.95;;
27163;SDS011;14685;50.618;7.024;2022-08-19T00:55:53;8.80;;;7.85;;
27163;SDS011;14685;50.618;7.024;2022-08-19T00:58:24;9.45;;;8.57;;
27163;SDS011;14685;50.618;7.024;2022-08-19T01:00:56;9.52;;;8.60;;
27163;SDS011;14685;50.618;7.024;2022-08-19T01:03:23;9.85;;;8.60;;
27163;SDS011;14685;50.618;7.024;2022-08-19T01:05:50;9.65;;;8.75;;
27163;SDS011;14685;50.618;7.024;2022-08-19T01:08:19;11.95;;;9.02;;
27163;SDS011;14685;50.618;7.024;2022-08-19T01:10:48;10.40;;;9.32;;
27163;SDS011;14685;50.618;7.024;2022-08-19T01:13:20;10.45;;;9.40;;
27163;SDS011;14685;50.618;7.024;2022-08-19T01:15:50;10.10;;;8.38;;
27163;SDS011;14685;50.618;7.024;2022-08-19T01:18:21;10.27;;;9.27;;
27163;SDS011;14685;50.618;7.024;2022-08-19T01:20:49;9.35;;;8.52;;
27163;SDS011;14685;50.618;7.024;2022-08-19T01:23:18;9.70;;;8.80;;
27163;SDS011;14685;50.618;7.024;2022-08-19T01:25:49;9.73;;;8.80;;
27163;SDS011;14685;50.618;7.024;2022-08-19T01:28:23;9.38;;;8.50;;
27163;SDS011;14685;50.618;7.024;2022-08-19T01:31:05;9.27;;;8.35;;
27163;SDS011;14685;50.618;7.024;2022-08-19T01:33:53;11.38;;;8.88;;
27163;SDS011;14685;50.618;7.024;2022-08-19T01:36:31;9.15;;;8.30;;
27163;SDS011;14685;50.618;7.024;2022-08-19T01:39:04;10.27;;;9.27;;
27163;SDS011;14685;50.618;7.024;2022-08-19T01:41:35;10.00;;;9.00;;
27163;SDS011;14685;50.618;7.024;2022-08-19T01:44:03;10.05;;;9.07;;
27163;SDS011;14685;50.618;7.024;2022-08-19T01:46:44;11.68;;;9.15;;
27163;SDS011;14685;50.618;7.024;2022-08-19T01:49:13;10.10;;;8.35;;
27163;SDS011;14685;50.618;7.024;2022-08-19T01:51:41;8.68;;;7.82;;
27163;SDS011;14685;50.618;7.024;2022-08-19T01:54:08;9.45;;;7.97;;
27163;SDS011;14685;50.618;7.024;2022-08-19T01:56:37;9.18;;;8.32;;
27163;SDS011;14685;50.618;7.024;2022-08-19T01:59:06;10.02;;;8.57;;
27163;SDS011;14685;50.618;7.024;2022-08-19T02:01:37;9.20;;;8.30;;
27163;SDS011;14685;50.618;7.024;2022-08-19T02:04:04;10.25;;;9.20;;
27163;SDS011;14685;50.618;7.024;2022-08-19T02:06:32;11.35;;;8.82;;
27163;SDS011;14685;50.618;7.024;2022-08-19T02:08:59;11.00;;;9.90;;
27163;SDS011;14685;50.618;7.024;2022-08-19T02:11:28;13.95;;;9.70;;
27163;SDS011;14685;50.618;7.024;2022-08-19T02:13:58;10.93;;;9.82;;
27163;SDS011;14685;50.618;7.024;2022-08-19T02:16:26;10.38;;;9.48;;
27163;SDS011;14685;50.618;7.024;2022-08-19T02:18:53;10.50;;;9.52;;
27163;SDS011;14685;50.618;7.024;2022-08-19T02:21:22;10.45;;;9.45;;
27163;SDS011;14685;50.618;7.024;2022-08-19T02:23:50;10.80;;;9.73;;
27163;SDS011;14685;50.618;7.024;2022-08-19T02:26:18;13.50;;;9.88;;
27163;SDS011;14685;50.618;7.024;2022-08-19T02:28:45;11.55;;;10.20;;
27163;SDS011;14685;50.618;7.024;2022-08-19T02:31:13;10.48;;;9.48;;
27163;SDS011;14685;50.618;7.024;2022-08-19T02:33:42;10.88;;;9.73;;
27163;SDS011;14685;50.618;7.024;2022-08-19T02:36:10;11.80;;;10.00;;
27163;SDS011;14685;50.618;7.024;2022-08-19T02:38:40;11.07;;;9.98;;
27163;SDS011;14685;50.618;7.024;2022-08-19T02:41:11;10.32;;;9.43;;
27163;SDS011;14685;50.618;7.024;2022-08-19T02:43:43;10.63;;;9.27;;
27163;SDS011;14685;50.618;7.024;2022-08-19T02:46:32;12.05;;;8.70;;
27163;SDS011;14685;50.618;7.024;2022-08-19T02:49:00;11.68;;;10.48;;
27163;SDS011;14685;50.618;7.024;2022-08-19T02:51:35;10.18;;;9.07;;
27163;SDS011;14685;50.618;7.024;2022-08-19T02:54:07;10.73;;;9.63;;
27163;SDS011;14685;50.618;7.024;2022-08-19T02:56:36;13.85;;;9.90;;
27163;SDS011;14685;50.618;7.024;2022-08-19T02:59:04;12.15;;;10.85;;
27163;SDS011;14685;50.618;7.024;2022-08-19T03:01:36;12.02;;;10.75;;
27163;SDS011;14685;50.618;7.024;2022-08-19T03:04:10;13.45;;;10.20;;
27163;SDS011;14685;50.618;7.024;2022-08-19T03:06:40;11.82;;;10.63;;
27163;SDS011;14685;50.618;7.024;2022-08-19T03:09:09;9.98;;;9.07;;
27163;SDS011;14685;50.618;7.024;2022-08-19T03:11:37;11.85;;;10.65;;
27163;SDS011;14685;50.618;7.024;2022-08-19T03:14:05;11.02;;;9.82;;
27163;SDS011;14685;50.618;7.024;2022-08-19T03:16:39;12.38;;;11.13;;
27163;SDS011;14685;50.618;7.024;2022-08-19T03:19:10;11.18;;;10.07;;
27163;SDS011;14685;50.618;7.024;2022-08-19T03:21:38;12.75;;;11.10;;
27163;SDS011;14685;50.618;7.024;2022-08-19T03:24:06;12.30;;;11.10;;
27163;SDS011;14685;50.618;7.024;2022-08-19T03:26:37;10.82;;;9.82;;
27163;SDS011;14685;50.618;7.024;2022-08-19T03:29:06;15.48;;;11.35;;
27163;SDS011;14685;50.618;7.024;2022-08-19T03:31:35;12.80;;;10.65;;
27163;SDS011;14685;50.618;7.024;2022-08-19T03:34:18;11.40;;;10.40;;
27163;SDS011;14685;50.618;7.024;2022-08-19T03:36:47;13.32;;;11.38;;
27163;SDS011;14685;50.618;7.024;2022-08-19T03:39:15;12.10;;;10.50;;
27163;SDS011;14685;50.618;7.024;2022-08-19T03:41:43;14.50;;;10.77;;
27163;SDS011;14685;50.618;7.024;2022-08-19T03:44:14;12.18;;;11.02;;
27163;SDS011;14685;50.618;7.024;2022-08-19T03:46:54;11.00;;;9.93;;
27163;SDS011;14685;50.618;7.024;2022-08-19T03:49:24;12.52;;;11.32;;
27163;SDS011;14685;50.618;7.024;2022-08-19T03:51:54;14.30;;;11.85;;
27163;SDS011;14685;50.618;7.024;2022-08-19T03:54:23;14.98;;;11.32;;
27163;SDS011;14685;50.618;7.024;2022-08-19T03:56:51;13.32;;;11.55;;
27163;SDS011;14685;50.618;7.024;2022-08-19T03:59:21;16.50;;;12.13;;
27163;SDS011;14685;50.618;7.024;2022-08-19T04:01:53;13.00;;;11.63;;
27163;SDS011;14685;50.618;7.024;2022-08-19T04:04:22;12.15;;;10.93;;
27163;SDS011;14685;50.618;7.024;2022-08-19T04:09:17;13.38;;;12.13;;
27163;SDS011;14685;50.618;7.024;2022-08-19T04:11:48;13.75;;;11.50;;
27163;SDS011;14685;50.618;7.024;2022-08-19T04:14:20;13.85;;;12.27;;
27163;SDS011;14685;50.618;7.024;2022-08-19T04:16:52;14.55;;;12.18;;
27163;SDS011;14685;50.618;7.024;2022-08-19T04:19:19;11.90;;;10.80;;
27163;SDS011;14685;50.618;7.024;2022-08-19T04:21:47;14.70;;;10.88;;
27163;SDS011;14685;50.618;7.024;2022-08-19T04:24:16;12.60;;;11.38;;
27163;SDS011;14685;50.618;7.024;2022-08-19T04:26:45;11.73;;;10.55;;
27163;SDS011;14685;50.618;7.024;2022-08-19T04:29:14;13.07;;;11.77;;
27163;SDS011;14685;50.618;7.024;2022-08-19T04:31:43;14.50;;;11.80;;
27163;SDS011;14685;50.618;7.024;2022-08-19T04:34:12;12.18;;;10.88;;
27163;SDS011;14685;50.618;7.024;2022-08-19T04:36:41;11.90;;;9.90;;
27163;SDS011;14685;50.618;7.024;2022-08-19T04:39:14;13.30;;;11.80;;
27163;SDS011;14685;50.618;7.024;2022-08-19T04:41:43;13.90;;;12.10;;
27163;SDS011;14685;50.618;7.024;2022-08-19T04:44:30;14.38;;;12.25;;
27163;SDS011;14685;50.618;7.024;2022-08-19T04:47:00;13.95;;;12.55;;
27163;SDS011;14685;50.618;7.024;2022-08-19T04:49:36;13.90;;;10.68;;
27163;SDS011;14685;50.618;7.024;2022-08-19T04:52:03;15.00;;;11.77;;
27163;SDS011;14685;50.618;7.024;2022-08-19T04:54:30;12.15;;;10.90;;
27163;SDS011;14685;50.618;7.024;2022-08-19T04:57:04;13.73;;;11.98;;
27163;SDS011;14685;50.618;7.024;2022-08-19T04:59:34;13.30;;;11.95;;
27163;SDS011;14685;50.618;7.024;2022-08-19T05:02:02;14.95;;;12.68;;
27163;SDS011;14685;50.618;7.024;2022-08-19T05:04:30;13.32;;;12.02;;
27163;SDS011;14685;50.618;7.024;2022-08-19T05:06:58;14.02;;;12.63;;
27163;SDS011;14685;50.618;7.024;2022-08-19T05:09:28;14.23;;;12.82;;
27163;SDS011;14685;50.618;7.024;2022-08-19T05:12:16;13.48;;;12.02;;
27163;SDS011;14685;50.618;7.024;2022-08-19T05:14:44;12.85;;;11.52;;
27163;SDS011;14685;50.618;7.024;2022-08-19T05:17:13;14.93;;;13.30;;
27163;SDS011;14685;50.618;7.024;2022-08-19T05:20:00;17.13;;;13.80;;
27163;SDS011;14685;50.618;7.024;2022-08-19T05:22:46;16.08;;;14.45;;
27163;SDS011;14685;50.618;7.024;2022-08-19T05:25:15;13.77;;;12.52;;
27163;SDS011;14685;50.618;7.024;2022-08-19T05:27:47;16.98;;;13.20;;
27163;SDS011;14685;50.618;7.024;2022-08-19T05:30:14;14.57;;;12.07;;
27163;SDS011;14685;50.618;7.024;2022-08-19T05:32:42;15.02;;;12.70;;
27163;SDS011;14685;50.618;7.024;2022-08-19T05:35:09;15.10;;;13.23;;
27163;SDS011;14685;50.618;7.024;2022-08-19T05:37:38;17.75;;;13.73;;
27163;SDS011;14685;50.618;7.024;2022-08-19T05:40:09;17.17;;;13.68;;
27163;SDS011;14685;50.618;7.024;2022-08-19T05:42:38;15.00;;;13.45;;
27163;SDS011;14685;50.618;7.024;2022-08-19T05:45:05;17.77;;;15.07;;
27163;SDS011;14685;50.618;7.024;2022-08-19T05:47:33;15.35;;;12.30;;
27163;SDS011;14685;50.618;7.024;2022-08-19T05:50:07;14.27;;;12.95;;
27163;SDS011;14685;50.618;7.024;2022-08-19T05:52:34;17.58;;;15.13;;
27163;SDS011;14685;50.618;7.024;2022-08-19T05:55:09;18.02;;;15.02;;
27163;SDS011;14685;50.618;7.024;2022-08-19T05:57:36;19.52;;;15.18;;
27163;SDS011;14685;50.618;7.024;2022-08-19T06:00:04;18.08;;;16.23;;
27163;SDS011;14685;50.618;7.024;2022-08-19T06:02:36;18.00;;;16.20;;
27163;SDS011;14685;50.618;7.024;2022-08-19T06:05:03;21.15;;;16.25;;
27163;SDS011;14685;50.618;7.024;2022-08-19T06:07:33;18.98;;;17.00;;
27163;SDS011;14685;50.618;7.024;2022-08-19T06:10:01;23.30;;;17.02;;
27163;SDS011;14685;50.618;7.024;2022-08-19T06:12:33;23.65;;;18.30;;
27163;SDS011;14685;50.618;7.024;2022-08-19T06:15:09;20.65;;;18.25;;
27163;SDS011;14685;50.618;7.024;2022-08-19T06:17:37;25.10;;;19.98;;
27163;SDS011;14685;50.618;7.024;2022-08-19T06:20:05;29.00;;;22.00;;
27163;SDS011;14685;50.618;7.024;2022-08-19T06:22:52;31.83;;;22.77;;
27163;SDS011;14685;50.618;7.024;2022-08-19T06:25:20;35.90;;;24.45;;
27163;SDS011;14685;50.618;7.024;2022-08-19T06:27:47;35.72;;;25.52;;
27163;SDS011;14685;50.618;7.024;2022-08-19T06:30:33;31.63;;;25.25;;
27163;SDS011;14685;50.618;7.024;2022-08-19T06:33:02;36.85;;;26.80;;
27163;SDS011;14685;50.618;7.024;2022-08-19T06:35:29;36.20;;;28.95;;
27163;SDS011;14685;50.618;7.024;2022-08-19T06:37:56;42.42;;;30.77;;
27163;SDS011;14685;50.618;7.024;2022-08-19T06:40:23;35.25;;;30.63;;
27163;SDS011;14685;50.618;7.024;2022-08-19T06:42:51;42.17;;;34.15;;
27163;SDS011;14685;50.618;7.024;2022-08-19T06:45:19;40.95;;;33.85;;
27163;SDS011;14685;50.618;7.024;2022-08-19T06:48:11;39.13;;;33.75;;
27163;SDS011;14685;50.618;7.024;2022-08-19T06:51:06;44.72;;;36.40;;
27163;SDS011;14685;50.618;7.024;2022-08-19T06:53:33;38.60;;;32.78;;
27163;SDS011;14685;50.618;7.024;2022-08-19T06:56:01;45.30;;;38.30;;
27163;SDS011;14685;50.618;7.024;2022-08-19T06:58:31;40.97;;;33.05;;
27163;SDS011;14685;50.618;7.024;2022-08-19T07:01:01;50.80;;;37.65;;
27163;SDS011;14685;50.618;7.024;2022-08-19T07:03:34;47.38;;;35.08;;
27163;SDS011;14685;50.618;7.024;2022-08-19T07:06:05;52.80;;;38.35;;
27163;SDS011;14685;50.618;7.024;2022-08-19T07:08:47;45.30;;;36.75;;
27163;SDS011;14685;50.618;7.024;2022-08-19T07:11:15;49.45;;;37.97;;
27163;SDS011;14685;50.618;7.024;2022-08-19T07:13:49;51.15;;;39.50;;
27163;SDS011;14685;50.618;7.024;2022-08-19T07:16:19;48.88;;;35.92;;
27163;SDS011;14685;50.618;7.024;2022-08-19T07:18:54;50.00;;;38.38;;
27163;SDS011;14685;50.618;7.024;2022-08-19T07:21:24;53.28;;;40.35;;
27163;SDS011;14685;50.618;7.024;2022-08-19T07:23:56;53.08;;;41.15;;
27163;SDS011;14685;50.618;7.024;2022-08-19T07:26:33;45.53;;;35.30;;
27163;SDS011;14685;50.618;7.024;2022-08-19T07:29:07;46.35;;;34.33;;
27163;SDS011;14685;50.618;7.024;2022-08-19T07:31:35;49.45;;;35.78;;
27163;SDS011;14685;50.618;7.024;2022-08-19T07:34:04;52.55;;;38.10;;
27163;SDS011;14685;50.618;7.024;2022-08-19T07:36:37;53.10;;;38.90;;
27163;SDS011;14685;50.618;7.024;2022-08-19T07:39:08;55.08;;;39.63;;
27163;SDS011;14685;50.618;7.024;2022-08-19T07:41:38;42.95;;;30.85;;
27163;SDS011;14685;50.618;7.024;2022-08-19T07:44:05;56.10;;;38.25;;
27163;SDS011;14685;50.618;7.024;2022-08-19T07:46:36;45.78;;;33.67;;
27163;SDS011;14685;50.618;7.024;2022-08-19T07:49:05;41.40;;;31.27;;
27163;SDS011;14685;50.618;7.024;2022-08-19T07:51:33;42.92;;;32.78;;
27163;SDS011;14685;50.618;7.024;2022-08-19T07:54:02;43.67;;;33.65;;
27163;SDS011;14685;50.618;7.024;2022-08-19T07:56:29;54.20;;;34.85;;
27163;SDS011;14685;50.618;7.024;2022-08-19T07:58:59;41.78;;;32.17;;
27163;SDS011;14685;50.618;7.024;2022-08-19T08:01:27;43.78;;;34.05;;
27163;SDS011;14685;50.618;7.024;2022-08-19T08:03:55;41.72;;;30.25;;
27163;SDS011;14685;50.618;7.024;2022-08-19T08:06:42;42.88;;;31.20;;
27163;SDS011;14685;50.618;7.024;2022-08-19T08:09:33;34.78;;;27.50;;
27163;SDS011;14685;50.618;7.024;2022-08-19T08:12:06;42.40;;;30.60;;
27163;SDS011;14685;50.618;7.024;2022-08-19T08:14:55;37.58;;;27.77;;
27163;SDS011;14685;50.618;7.024;2022-08-19T08:17:25;42.38;;;28.85;;
27163;SDS011;14685;50.618;7.024;2022-08-19T08:20:13;35.03;;;26.15;;
27163;SDS011;14685;50.618;7.024;2022-08-19T08:22:45;35.40;;;27.25;;
27163;SDS011;14685;50.618;7.024;2022-08-19T08:25:31;35.97;;;27.58;;
27163;SDS011;14685;50.618;7.024;2022-08-19T08:28:00;31.27;;;26.05;;
27163;SDS011;14685;50.618;7.024;2022-08-19T08:30:29;31.95;;;25.02;;
27163;SDS011;14685;50.618;7.024;2022-08-19T08:32:59;42.70;;;30.55;;
27163;SDS011;14685;50.618;7.024;2022-08-19T08:35:27;38.10;;;28.70;;
27163;SDS011;14685;50.618;7.024;2022-08-19T08:37:54;32.50;;;24.45;;
27163;SDS011;14685;50.618;7.024;2022-08-19T08:40:58;28.52;;;20.75;;
27163;SDS011;14685;50.618;7.024;2022-08-19T08:43:34;34.92;;;26.30;;
27163;SDS011;14685;50.618;7.024;2022-08-19T08:46:11;34.40;;;27.08;;
27163;SDS011;14685;50.618;7.024;2022-08-19T08:54:43;38.13;;;28.42;;
27163;SDS011;14685;50.618;7.024;2022-08-19T08:57:32;38.05;;;27.95;;
27163;SDS011;14685;50.618;7.024;2022-08-19T09:00:07;34.83;;;25.80;;
27163;SDS011;14685;50.618;7.024;2022-08-19T09:02:41;33.20;;;24.95;;
27163;SDS011;14685;50.618;7.024;2022-08-19T09:05:09;27.58;;;20.30;;
27163;SDS011;14685;50.618;7.024;2022-08-19T09:07:46;36.60;;;31.00;;
27163;SDS011;14685;50.618;7.024;2022-08-19T09:16:20;29.88;;;22.00;;
27163;SDS011;14685;50.618;7.024;2022-08-19T09:18:54;33.03;;;25.38;;
27163;SDS011;14685;50.618;7.024;2022-08-19T09:21:33;26.02;;;21.98;;
27163;SDS011;14685;50.618;7.024;2022-08-19T09:24:01;25.38;;;20.20;;
27163;SDS011;14685;50.618;7.024;2022-08-19T09:26:30;23.13;;;17.42;;
27163;SDS011;14685;50.618;7.024;2022-08-19T09:29:17;28.20;;;21.40;;
27163;SDS011;14685;50.618;7.024;2022-08-19T09:31:50;23.10;;;18.48;;
27163;SDS011;14685;50.618;7.024;2022-08-19T09:34:17;24.15;;;18.02;;
27163;SDS011;14685;50.618;7.024;2022-08-19T09:36:47;21.23;;;16.45;;
27163;SDS011;14685;50.618;7.024;2022-08-19T09:39:20;22.55;;;16.05;;
27163;SDS011;14685;50.618;7.024;2022-08-19T09:41:47;21.75;;;17.88;;
27163;SDS011;14685;50.618;7.024;2022-08-19T09:44:16;18.10;;;15.00;;
27163;SDS011;14685;50.618;7.024;2022-08-19T09:46:44;16.95;;;13.50;;
27163;SDS011;14685;50.618;7.024;2022-08-19T09:49:14;13.82;;;11.05;;
27163;SDS011;14685;50.618;7.024;2022-08-19T09:51:43;19.77;;;17.67;;
27163;SDS011;14685;50.618;7.024;2022-08-19T09:54:16;16.90;;;14.00;;
27163;SDS011;14685;50.618;7.024;2022-08-19T09:56:49;14.75;;;12.40;;
27163;SDS011;14685;50.618;7.024;2022-08-19T09:59:16;22.92;;;16.60;;
27163;SDS011;14685;50.618;7.024;2022-08-19T10:01:43;24.02;;;18.70;;
27163;SDS011;14685;50.618;7.024;2022-08-19T10:04:11;23.58;;;16.10;;
27163;SDS011;14685;50.618;7.024;2022-08-19T10:09:23;17.25;;;13.63;;
27163;SDS011;14685;50.618;7.024;2022-08-19T10:12:00;15.52;;;13.48;;
27163;SDS011;14685;50.618;7.024;2022-08-19T10:14:28;18.20;;;16.00;;
27163;SDS011;14685;50.618;7.024;2022-08-19T10:16:55;14.15;;;12.23;;
27163;SDS011;14685;50.618;7.024;2022-08-19T10:19:24;17.88;;;15.98;;
27163;SDS011;14685;50.618;7.024;2022-08-19T10:21:52;15.50;;;13.73;;
27163;SDS011;14685;50.618;7.024;2022-08-19T10:24:25;19.58;;;16.17;;
27163;SDS011;14685;50.618;7.024;2022-08-19T10:26:54;15.50;;;13.98;;
27163;SDS011;14685;50.618;7.024;2022-08-19T10:29:25;16.20;;;14.32;;
27163;SDS011;14685;50.618;7.024;2022-08-19T10:31:59;12.05;;;10.85;;
27163;SDS011;14685;50.618;7.024;2022-08-19T10:34:28;18.13;;;14.70;;
27163;SDS011;14685;50.618;7.024;2022-08-19T10:36:56;16.63;;;13.30;;
27163;SDS011;14685;50.618;7.024;2022-08-19T10:39:27;11.18;;;10.02;;
27163;SDS011;14685;50.618;7.024;2022-08-19T10:41:57;14.77;;;12.60;;
27163;SDS011;14685;50.618;7.024;2022-08-19T10:44:24;11.65;;;10.35;;
